Time,TemperatureF,DewpointF,PressureIn,WindDirection,WindDirectionDegrees,WindSpeedMPH,WindSpeedGustMPH,Humidity,HourlyPrecipIn,Conditions,Clouds,dailyrainin,SoftwareType,DateUTC
2013-01-19 19:55:00,55.0,31.2,29.94,SE,135,2.0,2.0,40,0.00,,,0.00,VWS V14.01,2013-01-20 03:55:00,
2013-01-19 19:56:00,55.0,31.2,29.94,SE,135,2.0,2.0,40,0.00,,,0.00,VWS V14.01,2013-01-20 03:56:00,
2013-01-19 19:57:00,54.9,31.0,29.94,ESE,112,1.3,2.0,40,0.00,,,0.00,VWS V14.01,2013-01-20 03:57:00,
2013-01-19 19:58:00,54.9,31.0,29.97,ESE,112,2.5,2.5,40,0.00,,,0.00,VWS V14.01,2013-01-20 03:58:00,
2013-01-19 19:59:00,54.7,30.9,29.97,SSE,158,1.1,2.5,40,0.00,,,0.00,VWS V14.01,2013-01-20 03:59:00,
2013-01-19 20:00:00,54.7,30.9,29.97,SSE,158,2.7,2.7,40,0.00,,,0.00,VWS V14.01,2013-01-20 04:00:00,
2013-01-19 20:01:00,54.7,30.9,29.97,SSE,158,2.9,2.9,40,0.00,,,0.00,VWS V14.01,2013-01-20 04:01:00,
2013-01-19 20:02:00,54.7,30.9,29.97,SSE,158,2.9,2.9,40,0.00,,,0.00,VWS V14.01,2013-01-20 04:02:00,
2013-01-19 20:03:00,54.5,31.3,29.97,ESE,112,3.6,3.6,41,0.00,,,0.00,VWS V14.01,2013-01-20 04:03:00,
2013-01-19 20:04:00,54.5,31.3,29.97,SSE,158,2.7,3.6,41,0.00,,,0.00,VWS V14.01,2013-01-20 04:04:00,
2013-01-19 20:05:00,54.5,31.3,29.97,South,180,3.4,3.4,41,0.00,,,0.00,VWS V14.01,2013-01-20 04:05:00,
2013-01-19 20:06:00,54.7,31.5,29.97,South,180,3.6,3.6,41,0.00,,,0.00,VWS V14.01,2013-01-20 04:06:00,
2013-01-19 20:07:00,54.7,31.5,29.97,SE,135,3.1,3.6,41,0.00,,,0.00,VWS V14.01,2013-01-20 04:07:00,
2013-01-19 20:08:00,54.7,31.5,29.97,South,180,2.9,3.1,41,0.00,,,0.00,VWS V14.01,2013-01-20 04:08:00,
2013-01-19 20:09:00,54.7,31.5,29.97,SE,135,2.5,2.9,41,0.00,,,0.00,VWS V14.01,2013-01-20 04:09:00,
2013-01-19 20:10:00,54.7,31.5,29.97,SSE,158,4.3,4.3,41,0.00,,,0.00,VWS V14.01,2013-01-20 04:10:00,
2013-01-19 20:11:00,54.5,31.3,29.97,SSE,158,0.0,0.0,41,0.00,,,0.00,VWS V14.01,2013-01-20 04:11:00,
2013-01-19 20:12:00,54.5,31.3,29.97,SSE,158,1.1,1.1,41,0.00,,,0.00,VWS V14.01,2013-01-20 04:12:00,
2013-01-19 20:13:00,54.5,31.3,29.94,SSE,158,2.2,2.2,41,0.00,,,0.00,VWS V14.01,2013-01-20 04:13:00,
2013-01-19 20:14:00,54.5,31.3,29.94,SE,135,0.0,2.2,41,0.00,,,0.00,VWS V14.01,2013-01-20 04:14:00,
2013-01-19 20:15:00,54.3,31.1,29.94,SSE,158,0.0,0.0,41,0.00,,,0.00,VWS V14.01,2013-01-20 04:15:00,
2013-01-19 20:16:00,54.3,31.1,29.94,SSE,158,3.6,3.6,41,0.00,,,0.00,VWS V14.01,2013-01-20 04:16:00,
2013-01-19 20:17:00,54.3,31.1,29.94,SSE,158,3.8,3.8,41,0.00,,,0.00,VWS V14.01,2013-01-20 04:17:00,
2013-01-19 20:18:00,54.3,31.1,29.94,SE,135,3.8,3.8,41,0.00,,,0.00,VWS V14.01,2013-01-20 04:18:00,
2013-01-19 20:19:00,54.3,31.1,29.94,SE,135,2.2,3.8,41,0.00,,,0.00,VWS V14.01,2013-01-20 04:19:00,
2013-01-19 20:20:00,54.3,31.1,29.94,SSE,158,4.3,4.3,41,0.00,,,0.00,VWS V14.01,2013-01-20 04:20:00,
2013-01-19 20:21:00,54.1,31.0,29.94,SSE,158,2.2,3.4,41,0.00,,,0.00,VWS V14.01,2013-01-20 04:21:00,
2013-01-19 20:22:00,54.1,31.0,29.94,SSE,158,2.2,3.4,41,0.00,,,0.00,VWS V14.01,2013-01-20 04:22:00,
2013-01-19 20:23:00,54.1,31.0,29.94,SE,135,0.0,2.2,41,0.00,,,0.00,VWS V14.01,2013-01-20 04:23:00,
2013-01-19 20:24:00,54.1,31.0,29.94,SE,135,0.0,0.0,41,0.00,,,0.00,VWS V14.01,2013-01-20 04:24:00,
2013-01-19 20:25:00,54.1,31.0,29.94,SSE,158,3.6,3.6,41,0.00,,,0.00,VWS V14.01,2013-01-20 04:25:00,
2013-01-19 20:26:00,54.1,31.0,29.94,SSE,158,4.0,4.0,41,0.00,,,0.00,VWS V14.01,2013-01-20 04:26:00,
2013-01-19 20:27:00,54.1,31.0,29.94,SSE,158,4.0,4.0,41,0.00,,,0.00,VWS V14.01,2013-01-20 04:27:00,
2013-01-19 20:28:00,54.1,31.0,29.94,SE,135,0.9,3.4,41,0.00,,,0.00,VWS V14.01,2013-01-20 04:28:00,
2013-01-19 20:29:00,54.1,31.0,29.94,SE,135,2.0,2.0,41,0.00,,,0.00,VWS V14.01,2013-01-20 04:29:00,
2013-01-19 20:30:00,54.1,31.0,29.94,SE,135,2.5,2.5,41,0.00,,,0.00,VWS V14.01,2013-01-20 04:30:00,
2013-01-19 20:32:00,54.1,31.0,29.94,SE,135,0.0,2.5,41,0.00,,,0.00,VWS V14.01,2013-01-20 04:32:00,
2013-01-19 20:33:00,54.1,31.0,29.94,SE,135,3.1,3.1,41,0.00,,,0.00,VWS V14.01,2013-01-20 04:33:00,
2013-01-19 20:34:00,54.1,31.0,29.94,SSE,158,2.5,3.1,41,0.00,,,0.00,VWS V14.01,2013-01-20 04:34:00,
2013-01-19 20:35:00,54.1,31.6,29.94,SE,135,4.0,4.0,42,0.00,,,0.00,VWS V14.01,2013-01-20 04:35:00,
2013-01-19 20:36:00,54.1,31.6,29.94,SE,135,2.0,4.0,42,0.00,,,0.00,VWS V14.01,2013-01-20 04:36:00,
2013-01-19 20:37:00,54.1,31.6,29.94,SE,135,3.6,3.6,42,0.00,,,0.00,VWS V14.01,2013-01-20 04:37:00,
2013-01-19 20:38:00,54.1,31.6,29.94,SSE,158,3.6,3.6,42,0.00,,,0.00,VWS V14.01,2013-01-20 04:38:00,
2013-01-19 20:39:00,54.1,31.6,29.94,SSE,158,3.4,3.6,42,0.00,,,0.00,VWS V14.01,2013-01-20 04:39:00,
2013-01-19 20:40:00,54.1,31.6,29.94,SE,135,3.6,3.6,42,0.00,,,0.00,VWS V14.01,2013-01-20 04:40:00,
2013-01-19 20:41:00,54.1,31.6,29.94,ESE,112,0.0,3.6,42,0.00,,,0.00,VWS V14.01,2013-01-20 04:41:00,
2013-01-19 20:42:00,54.0,31.4,29.94,SSE,158,2.2,2.2,42,0.00,,,0.00,VWS V14.01,2013-01-20 04:42:00,
2013-01-19 20:43:00,53.8,31.2,29.91,SE,135,2.5,2.5,42,0.00,,,0.00,VWS V14.01,2013-01-20 04:43:00,
2013-01-19 20:44:00,53.8,31.2,29.91,ESE,112,2.7,2.7,42,0.00,,,0.00,VWS V14.01,2013-01-20 04:44:00,
2013-01-19 20:45:00,53.6,31.1,29.91,SE,135,1.6,2.7,42,0.00,,,0.00,VWS V14.01,2013-01-20 04:45:00,
2013-01-19 20:46:00,53.6,31.1,29.91,SE,135,0.0,1.6,42,0.00,,,0.00,VWS V14.01,2013-01-20 04:46:00,
2013-01-19 20:47:00,53.6,31.1,29.91,SE,135,3.6,3.6,42,0.00,,,0.00,VWS V14.01,2013-01-20 04:47:00,
2013-01-19 20:48:00,53.6,31.1,29.91,SE,135,0.0,3.6,42,0.00,,,0.00,VWS V14.01,2013-01-20 04:48:00,
2013-01-19 20:49:00,53.6,31.1,29.91,ESE,112,2.7,2.7,42,0.00,,,0.00,VWS V14.01,2013-01-20 04:49:00,
2013-01-19 20:50:00,53.6,31.7,29.91,ESE,112,0.9,2.7,43,0.00,,,0.00,VWS V14.01,2013-01-20 04:50:00,
2013-01-19 20:51:00,53.6,31.7,29.91,ESE,112,2.5,2.5,43,0.00,,,0.00,VWS V14.01,2013-01-20 04:51:00,
2013-01-19 20:52:00,53.6,31.7,29.91,SSE,158,2.7,2.7,43,0.00,,,0.00,VWS V14.01,2013-01-20 04:52:00,
2013-01-19 20:53:00,53.6,31.7,29.91,SE,135,0.0,2.7,43,0.00,,,0.00,VWS V14.01,2013-01-20 04:53:00,
2013-01-19 20:54:00,53.6,31.7,29.91,ESE,112,2.5,2.5,43,0.00,,,0.00,VWS V14.01,2013-01-20 04:54:00,
2013-01-19 20:55:00,53.6,31.7,29.91,SE,135,0.0,2.5,43,0.00,,,0.00,VWS V14.01,2013-01-20 04:55:00,
2013-01-19 20:56:00,53.6,31.7,29.91,ENE,68,3.6,3.6,43,0.00,,,0.00,VWS V14.01,2013-01-20 04:56:00,
2013-01-19 20:57:00,53.4,32.1,29.91,ESE,112,1.3,3.6,44,0.00,,,0.00,VWS V14.01,2013-01-20 04:57:00,
2013-01-19 20:58:00,53.4,32.1,29.91,SE,135,2.5,3.6,44,0.00,,,0.00,VWS V14.01,2013-01-20 04:58:00,
2013-01-19 20:59:00,53.4,32.1,29.91,SE,135,1.6,2.5,44,0.00,,,0.00,VWS V14.01,2013-01-20 04:59:00,
2013-01-19 21:00:00,53.4,32.1,29.91,ESE,112,2.0,2.0,44,0.00,,,0.00,VWS V14.01,2013-01-20 05:00:00,
2013-01-19 21:01:00,53.4,32.1,29.91,ESE,112,0.0,2.0,44,0.00,,,0.00,VWS V14.01,2013-01-20 05:01:00,
2013-01-19 21:02:00,53.4,32.1,29.91,ESE,112,1.3,1.3,44,0.00,,,0.00,VWS V14.01,2013-01-20 05:02:00,
2013-01-19 21:03:00,53.4,32.1,29.91,ESE,112,1.3,1.3,44,0.00,,,0.00,VWS V14.01,2013-01-20 05:03:00,
2013-01-19 21:04:00,53.4,32.1,29.91,East,90,2.7,2.7,44,0.00,,,0.00,VWS V14.01,2013-01-20 05:04:00,
2013-01-19 21:05:00,53.1,31.7,29.91,ENE,68,1.1,2.7,44,0.00,,,0.00,VWS V14.01,2013-01-20 05:05:00,
2013-01-19 21:06:00,53.1,32.3,29.91,East,90,0.0,1.1,45,0.00,,,0.00,VWS V14.01,2013-01-20 05:06:00,
2013-01-19 21:07:00,53.1,32.3,29.91,East,90,1.1,1.1,45,0.00,,,0.00,VWS V14.01,2013-01-20 05:07:00,
2013-01-19 21:08:00,53.1,32.3,29.91,East,90,2.5,2.5,45,0.00,,,0.00,VWS V14.01,2013-01-20 05:08:00,
2013-01-19 21:09:00,53.1,32.3,29.91,ESE,112,2.7,2.7,45,0.00,,,0.00,VWS V14.01,2013-01-20 05:09:00,
2013-01-19 21:10:00,53.1,32.8,29.91,East,90,0.0,2.7,46,0.00,,,0.00,VWS V14.01,2013-01-20 05:10:00,
2013-01-19 21:11:00,53.1,32.8,29.91,ESE,112,2.5,2.5,46,0.00,,,0.00,VWS V14.01,2013-01-20 05:11:00,
2013-01-19 21:12:00,53.1,32.8,29.91,SSE,158,1.6,2.5,46,0.00,,,0.00,VWS V14.01,2013-01-20 05:12:00,
2013-01-19 21:13:00,52.9,32.7,29.91,East,90,2.7,2.7,46,0.00,,,0.00,VWS V14.01,2013-01-20 05:13:00,
2013-01-19 21:14:00,52.9,32.7,29.91,ENE,68,2.9,2.9,46,0.00,,,0.00,VWS V14.01,2013-01-20 05:14:00,
2013-01-19 21:15:00,52.7,32.5,29.91,East,90,1.1,2.9,46,0.00,,,0.00,VWS V14.01,2013-01-20 05:15:00,
2013-01-19 21:16:00,52.7,32.5,29.91,East,90,2.0,2.0,46,0.00,,,0.00,VWS V14.01,2013-01-20 05:16:00,
2013-01-19 21:17:00,52.7,32.5,29.91,East,90,2.5,2.5,46,0.00,,,0.00,VWS V14.01,2013-01-20 05:17:00,
2013-01-19 21:18:00,52.5,32.3,29.91,ENE,68,0.0,0.0,46,0.00,,,0.00,VWS V14.01,2013-01-20 05:18:00,
2013-01-19 21:19:00,52.5,32.3,29.91,East,90,0.0,0.0,46,0.00,,,0.00,VWS V14.01,2013-01-20 05:19:00,
2013-01-19 21:20:00,52.5,32.3,29.91,ENE,68,2.2,2.2,46,0.00,,,0.00,VWS V14.01,2013-01-20 05:20:00,
2013-01-19 21:21:00,52.5,32.3,29.91,East,90,0.0,2.2,46,0.00,,,0.00,VWS V14.01,2013-01-20 05:21:00,
2013-01-19 21:22:00,52.7,32.5,29.91,East,90,2.9,2.9,46,0.00,,,0.00,VWS V14.01,2013-01-20 05:22:00,
2013-01-19 21:23:00,52.7,32.5,29.91,ENE,68,0.0,0.0,46,0.00,,,0.00,VWS V14.01,2013-01-20 05:23:00,
2013-01-19 21:24:00,52.7,32.5,29.91,East,90,0.0,0.0,46,0.00,,,0.00,VWS V14.01,2013-01-20 05:24:00,
2013-01-19 21:25:00,52.7,32.5,29.91,ENE,68,0.0,0.0,46,0.00,,,0.00,VWS V14.01,2013-01-20 05:25:00,
2013-01-19 21:26:00,52.9,32.7,29.91,East,90,3.4,3.4,46,0.00,,,0.00,VWS V14.01,2013-01-20 05:26:00,
2013-01-19 21:27:00,52.9,32.7,29.91,ENE,68,0.0,3.4,46,0.00,,,0.00,VWS V14.01,2013-01-20 05:27:00,
2013-01-19 21:28:00,52.9,33.2,29.91,ESE,112,2.0,2.0,47,0.00,,,0.00,VWS V14.01,2013-01-20 05:28:00,
2013-01-19 21:29:00,52.7,33.0,29.91,East,90,0.0,2.0,47,0.00,,,0.00,VWS V14.01,2013-01-20 05:29:00,
2013-01-19 21:30:00,52.7,33.0,29.91,ESE,112,0.0,0.0,47,0.00,,,0.00,VWS V14.01,2013-01-20 05:30:00,
2013-01-19 21:31:00,52.5,32.3,29.91,East,90,1.6,1.6,46,0.00,,,0.00,VWS V14.01,2013-01-20 05:31:00,
2013-01-19 21:32:00,52.5,32.3,29.91,East,90,2.7,2.7,46,0.00,,,0.00,VWS V14.01,2013-01-20 05:32:00,
2013-01-19 21:33:00,52.3,32.7,29.91,East,90,3.4,3.4,47,0.00,,,0.00,VWS V14.01,2013-01-20 05:33:00,
2013-01-19 21:34:00,52.3,32.7,29.91,East,90,3.4,3.4,47,0.00,,,0.00,VWS V14.01,2013-01-20 05:34:00,
2013-01-19 21:35:00,52.3,32.7,29.91,ESE,112,1.3,3.4,47,0.00,,,0.00,VWS V14.01,2013-01-20 05:35:00,
2013-01-19 21:36:00,52.2,32.6,29.91,ESE,112,2.5,2.5,47,0.00,,,0.00,VWS V14.01,2013-01-20 05:36:00,
2013-01-19 21:37:00,52.2,32.6,29.91,ESE,112,2.2,2.5,47,0.00,,,0.00,VWS V14.01,2013-01-20 05:37:00,
2013-01-19 21:38:00,52.0,32.4,29.91,ESE,112,0.0,0.0,47,0.00,,,0.00,VWS V14.01,2013-01-20 05:38:00,
2013-01-19 21:39:00,52.0,32.4,29.91,ESE,112,0.0,0.0,47,0.00,,,0.00,VWS V14.01,2013-01-20 05:39:00,
2013-01-19 21:40:00,52.0,32.4,29.91,East,90,2.0,2.0,47,0.00,,,0.00,VWS V14.01,2013-01-20 05:40:00,
2013-01-19 21:41:00,52.0,32.4,29.91,East,90,0.0,2.0,47,0.00,,,0.00,VWS V14.01,2013-01-20 05:41:00,
2013-01-19 21:42:00,51.8,32.2,29.91,ESE,112,0.0,0.0,47,0.00,,,0.00,VWS V14.01,2013-01-20 05:42:00,
2013-01-19 21:43:00,51.8,32.2,29.91,ESE,112,0.0,0.0,47,0.00,,,0.00,VWS V14.01,2013-01-20 05:43:00,
2013-01-19 21:44:00,51.8,32.2,29.91,ESE,112,0.0,0.0,47,0.00,,,0.00,VWS V14.01,2013-01-20 05:44:00,
2013-01-19 21:45:00,51.6,32.1,29.91,ESE,112,0.9,1.6,47,0.00,,,0.00,VWS V14.01,2013-01-20 05:45:00,
2013-01-19 21:46:00,51.6,32.1,29.91,ESE,112,1.3,1.3,47,0.00,,,0.00,VWS V14.01,2013-01-20 05:46:00,
2013-01-19 21:47:00,51.6,32.6,29.91,ESE,112,0.0,1.3,48,0.00,,,0.00,VWS V14.01,2013-01-20 05:47:00,
2013-01-19 21:48:00,51.6,32.6,29.91,SE,135,0.0,0.0,48,0.00,,,0.00,VWS V14.01,2013-01-20 05:48:00,
2013-01-19 21:49:00,51.6,32.6,29.91,ESE,112,0.0,0.0,48,0.00,,,0.00,VWS V14.01,2013-01-20 05:49:00,
2013-01-19 21:50:00,51.6,32.6,29.91,ESE,112,0.0,0.0,48,0.00,,,0.00,VWS V14.01,2013-01-20 05:50:00,
2013-01-19 21:51:00,51.6,32.6,29.91,East,90,1.6,2.0,48,0.00,,,0.00,VWS V14.01,2013-01-20 05:51:00,
2013-01-19 21:52:00,51.6,32.6,29.91,East,90,2.2,2.2,48,0.00,,,0.00,VWS V14.01,2013-01-20 05:52:00,
2013-01-19 21:53:00,51.6,32.6,29.91,ESE,112,0.0,0.0,48,0.00,,,0.00,VWS V14.01,2013-01-20 05:53:00,
2013-01-19 21:54:00,51.4,32.4,29.91,ESE,112,1.3,1.3,48,0.00,,,0.00,VWS V14.01,2013-01-20 05:54:00,
2013-01-19 21:55:00,51.4,32.4,29.91,ESE,112,2.9,2.9,48,0.00,,,0.00,VWS V14.01,2013-01-20 05:55:00,
2013-01-19 21:56:00,51.4,32.4,29.91,East,90,0.9,2.9,48,0.00,,,0.00,VWS V14.01,2013-01-20 05:56:00,
2013-01-19 21:57:00,51.4,32.4,29.91,ESE,112,1.1,1.1,48,0.00,,,0.00,VWS V14.01,2013-01-20 05:57:00,
2013-01-19 21:58:00,51.4,32.4,29.91,East,90,0.0,1.1,48,0.00,,,0.00,VWS V14.01,2013-01-20 05:58:00,
2013-01-19 21:59:00,51.4,32.4,29.91,ENE,68,3.4,3.4,48,0.00,,,0.00,VWS V14.01,2013-01-20 05:59:00,
2013-01-19 22:00:00,51.4,32.4,29.91,East,90,2.5,3.4,48,0.00,,,0.00,VWS V14.01,2013-01-20 06:00:00,
2013-01-19 22:01:00,51.6,32.6,29.91,East,90,1.3,2.5,48,0.00,,,0.00,VWS V14.01,2013-01-20 06:01:00,
2013-01-19 22:02:00,51.6,32.6,29.91,East,90,1.3,1.3,48,0.00,,,0.00,VWS V14.01,2013-01-20 06:02:00,
2013-01-19 22:03:00,51.6,33.1,29.91,East,90,3.1,3.1,49,0.00,,,0.00,VWS V14.01,2013-01-20 06:03:00,
2013-01-19 22:04:00,51.6,33.1,29.91,East,90,1.3,3.1,49,0.00,,,0.00,VWS V14.01,2013-01-20 06:04:00,
2013-01-19 22:05:00,51.6,33.1,29.91,ENE,68,2.0,3.8,49,0.00,,,0.00,VWS V14.01,2013-01-20 06:05:00,
2013-01-19 22:06:00,51.6,33.1,29.91,ENE,68,3.1,3.1,49,0.00,,,0.00,VWS V14.01,2013-01-20 06:06:00,
2013-01-19 22:07:00,51.6,33.1,29.91,ENE,68,0.0,3.1,49,0.00,,,0.00,VWS V14.01,2013-01-20 06:07:00,
2013-01-19 22:08:00,51.8,33.3,29.91,ENE,68,0.0,0.0,49,0.00,,,0.00,VWS V14.01,2013-01-20 06:08:00,
2013-01-19 22:09:00,51.8,33.3,29.91,ENE,68,0.0,0.0,49,0.00,,,0.00,VWS V14.01,2013-01-20 06:09:00,
2013-01-19 22:10:00,52.2,33.6,29.91,ENE,68,0.0,0.0,49,0.00,,,0.00,VWS V14.01,2013-01-20 06:10:00,
2013-01-19 22:11:00,52.2,33.6,29.91,ENE,68,0.0,0.0,49,0.00,,,0.00,VWS V14.01,2013-01-20 06:11:00,
2013-01-19 22:12:00,52.2,33.6,29.91,ENE,68,0.0,0.0,49,0.00,,,0.00,VWS V14.01,2013-01-20 06:12:00,
2013-01-19 22:13:00,52.2,33.6,29.91,ENE,68,0.0,0.0,49,0.00,,,0.00,VWS V14.01,2013-01-20 06:13:00,
2013-01-19 22:14:00,52.2,33.6,29.91,ENE,68,0.0,0.0,49,0.00,,,0.00,VWS V14.01,2013-01-20 06:14:00,
2013-01-19 22:15:00,52.2,33.6,29.91,ENE,68,0.0,0.0,49,0.00,,,0.00,VWS V14.01,2013-01-20 06:15:00,
2013-01-19 22:16:00,52.2,33.6,29.91,ENE,68,0.0,0.0,49,0.00,,,0.00,VWS V14.01,2013-01-20 06:16:00,
2013-01-19 22:17:00,52.2,33.6,29.91,ENE,68,0.0,0.0,49,0.00,,,0.00,VWS V14.01,2013-01-20 06:17:00,
2013-01-19 22:18:00,52.2,34.1,29.91,NE,45,0.0,0.0,50,0.00,,,0.00,VWS V14.01,2013-01-20 06:18:00,
2013-01-19 22:19:00,52.2,34.1,29.91,ENE,68,0.0,0.0,50,0.00,,,0.00,VWS V14.01,2013-01-20 06:19:00,
2013-01-19 22:20:00,52.2,34.1,29.91,ENE,68,0.0,0.0,50,0.00,,,0.00,VWS V14.01,2013-01-20 06:20:00,
2013-01-19 22:21:00,52.3,34.3,29.91,ENE,68,0.0,2.9,50,0.00,,,0.00,VWS V14.01,2013-01-20 06:21:00,
2013-01-19 22:22:00,52.5,34.9,29.91,ENE,68,0.0,0.0,51,0.00,,,0.00,VWS V14.01,2013-01-20 06:22:00,
2013-01-19 22:23:00,52.5,34.9,29.91,ENE,68,0.0,0.0,51,0.00,,,0.00,VWS V14.01,2013-01-20 06:23:00,
2013-01-19 22:24:00,52.5,34.9,29.91,ENE,68,0.0,0.0,51,0.00,,,0.00,VWS V14.01,2013-01-20 06:24:00,
2013-01-19 22:25:00,52.5,34.9,29.91,ENE,68,0.0,0.0,51,0.00,,,0.00,VWS V14.01,2013-01-20 06:25:00,
2013-01-19 22:26:00,52.5,34.9,29.91,ENE,68,0.0,0.0,51,0.00,,,0.00,VWS V14.01,2013-01-20 06:26:00,
2013-01-19 22:27:00,52.5,34.9,29.91,ENE,68,0.0,0.0,51,0.00,,,0.00,VWS V14.01,2013-01-20 06:27:00,
2013-01-19 22:28:00,52.3,34.3,29.91,ENE,68,0.0,0.0,50,0.00,,,0.00,VWS V14.01,2013-01-20 06:28:00,
2013-01-19 22:29:00,52.3,34.3,29.91,ENE,68,0.0,0.0,50,0.00,,,0.00,VWS V14.01,2013-01-20 06:29:00,
2013-01-19 22:30:00,52.3,34.3,29.91,ENE,68,0.0,0.0,50,0.00,,,0.00,VWS V14.01,2013-01-20 06:30:00,
2013-01-19 22:31:00,52.3,34.3,29.91,ENE,68,0.0,0.0,50,0.00,,,0.00,VWS V14.01,2013-01-20 06:31:00,
2013-01-19 22:32:00,52.3,34.3,29.91,ENE,68,0.0,0.0,50,0.00,,,0.00,VWS V14.01,2013-01-20 06:32:00,
2013-01-19 22:33:00,52.0,33.9,29.91,ENE,68,0.0,0.0,50,0.00,,,0.00,VWS V14.01,2013-01-20 06:33:00,
2013-01-19 22:34:00,52.0,33.9,29.91,ENE,68,0.0,0.0,50,0.00,,,0.00,VWS V14.01,2013-01-20 06:34:00,
2013-01-19 22:35:00,51.8,33.8,29.91,ENE,68,0.0,0.0,50,0.00,,,0.00,VWS V14.01,2013-01-20 06:35:00,
2013-01-19 22:36:00,51.8,33.8,29.91,ENE,68,0.0,0.0,50,0.00,,,0.00,VWS V14.01,2013-01-20 06:36:00,
2013-01-19 22:37:00,51.8,33.8,29.91,ENE,68,0.0,0.0,50,0.00,,,0.00,VWS V14.01,2013-01-20 06:37:00,
2013-01-19 22:38:00,52.0,33.9,29.91,ENE,68,0.0,0.0,50,0.00,,,0.00,VWS V14.01,2013-01-20 06:38:00,
2013-01-19 22:39:00,52.0,33.9,29.91,East,90,0.0,0.0,50,0.00,,,0.00,VWS V14.01,2013-01-20 06:39:00,
2013-01-19 22:40:00,52.0,33.9,29.91,East,90,2.2,2.2,50,0.00,,,0.00,VWS V14.01,2013-01-20 06:40:00,
2013-01-19 22:41:00,52.0,33.9,29.91,East,90,0.0,2.2,50,0.00,,,0.00,VWS V14.01,2013-01-20 06:41:00,
2013-01-19 22:42:00,52.0,34.4,29.91,ENE,68,0.0,0.0,51,0.00,,,0.00,VWS V14.01,2013-01-20 06:42:00,
2013-01-19 22:43:00,52.0,33.9,29.94,ENE,68,0.0,0.0,50,0.00,,,0.00,VWS V14.01,2013-01-20 06:43:00,
2013-01-19 22:44:00,52.0,33.9,29.94,ENE,68,0.0,0.0,50,0.00,,,0.00,VWS V14.01,2013-01-20 06:44:00,
2013-01-19 22:45:00,52.0,34.4,29.94,East,90,0.0,0.0,51,0.00,,,0.00,VWS V14.01,2013-01-20 06:45:00,
2013-01-19 22:46:00,52.0,34.4,29.94,East,90,2.7,2.7,51,0.00,,,0.00,VWS V14.01,2013-01-20 06:46:00,
2013-01-19 22:47:00,52.0,34.4,29.94,East,90,3.8,3.8,51,0.00,,,0.00,VWS V14.01,2013-01-20 06:47:00,
2013-01-19 22:48:00,52.0,34.4,29.94,East,90,3.8,3.8,51,0.00,,,0.00,VWS V14.01,2013-01-20 06:48:00,
2013-01-19 22:49:00,52.0,34.4,29.94,ENE,68,4.7,4.7,51,0.00,,,0.00,VWS V14.01,2013-01-20 06:49:00,
2013-01-19 22:50:00,52.0,34.4,29.94,East,90,4.9,4.9,51,0.00,,,0.00,VWS V14.01,2013-01-20 06:50:00,
2013-01-19 22:51:00,52.0,34.4,29.94,ESE,112,3.1,4.9,51,0.00,,,0.00,VWS V14.01,2013-01-20 06:51:00,
2013-01-19 22:52:00,51.8,34.3,29.94,ESE,112,4.0,4.0,51,0.00,,,0.00,VWS V14.01,2013-01-20 06:52:00,
2013-01-19 22:53:00,51.8,34.3,29.94,East,90,4.7,4.7,51,0.00,,,0.00,VWS V14.01,2013-01-20 06:53:00,
2013-01-19 22:54:00,51.8,34.3,29.94,ESE,112,2.7,4.7,51,0.00,,,0.00,VWS V14.01,2013-01-20 06:54:00,
2013-01-19 22:55:00,51.8,34.3,29.94,East,90,4.3,4.3,51,0.00,,,0.00,VWS V14.01,2013-01-20 06:55:00,
2013-01-19 22:56:00,51.6,34.6,29.94,East,90,3.1,4.3,52,0.00,,,0.00,VWS V14.01,2013-01-20 06:56:00,
2013-01-19 22:57:00,51.6,34.6,29.94,ESE,112,3.6,3.6,52,0.00,,,0.00,VWS V14.01,2013-01-20 06:57:00,
2013-01-19 22:58:00,51.6,34.1,29.91,ESE,112,3.6,3.6,51,0.00,,,0.00,VWS V14.01,2013-01-20 06:58:00,
2013-01-19 22:59:00,51.4,34.4,29.91,ESE,112,4.7,4.7,52,0.00,,,0.00,VWS V14.01,2013-01-20 06:59:00,
2013-01-19 23:00:00,51.4,34.4,29.91,East,90,4.3,4.7,52,0.00,,,0.00,VWS V14.01,2013-01-20 07:00:00,
2013-01-19 23:01:00,51.4,34.4,29.91,ESE,112,3.8,4.3,52,0.00,,,0.00,VWS V14.01,2013-01-20 07:01:00,
2013-01-19 23:02:00,51.4,34.4,29.91,East,90,3.4,3.8,52,0.00,,,0.00,VWS V14.01,2013-01-20 07:02:00,
2013-01-19 23:03:00,51.4,34.4,29.91,ESE,112,1.1,3.4,52,0.00,,,0.00,VWS V14.01,2013-01-20 07:03:00,
2013-01-19 23:04:00,51.4,34.4,29.91,ESE,112,4.3,4.3,52,0.00,,,0.00,VWS V14.01,2013-01-20 07:04:00,
2013-01-19 23:05:00,51.4,34.4,29.91,ESE,112,4.3,4.3,52,0.00,,,0.00,VWS V14.01,2013-01-20 07:05:00,
2013-01-19 23:06:00,51.4,34.4,29.91,East,90,4.9,4.9,52,0.00,,,0.00,VWS V14.01,2013-01-20 07:06:00,
2013-01-19 23:07:00,51.4,34.4,29.91,SE,135,5.4,5.4,52,0.00,,,0.00,VWS V14.01,2013-01-20 07:07:00,
2013-01-19 23:08:00,51.4,34.4,29.91,ESE,112,4.9,4.9,52,0.00,,,0.00,VWS V14.01,2013-01-20 07:08:00,
2013-01-19 23:09:00,51.4,34.4,29.91,East,90,5.4,5.4,52,0.00,,,0.00,VWS V14.01,2013-01-20 07:09:00,
2013-01-19 23:10:00,51.4,34.4,29.91,ESE,112,6.0,6.0,52,0.00,,,0.00,VWS V14.01,2013-01-20 07:10:00,
2013-01-19 23:11:00,51.4,34.4,29.91,East,90,5.4,6.0,52,0.00,,,0.00,VWS V14.01,2013-01-20 07:11:00,
2013-01-19 23:12:00,51.6,34.6,29.91,East,90,5.6,5.6,52,0.00,,,0.00,VWS V14.01,2013-01-20 07:12:00,
2013-01-19 23:13:00,51.6,34.6,29.91,East,90,5.6,5.6,52,0.00,,,0.00,VWS V14.01,2013-01-20 07:13:00,
2013-01-19 23:14:00,51.6,34.6,29.91,ESE,112,4.0,5.6,52,0.00,,,0.00,VWS V14.01,2013-01-20 07:14:00,
2013-01-19 23:15:00,51.4,34.4,29.91,East,90,4.3,4.3,52,0.00,,,0.00,VWS V14.01,2013-01-20 07:15:00,
2013-01-19 23:16:00,51.4,34.4,29.91,SE,135,4.0,4.3,52,0.00,,,0.00,VWS V14.01,2013-01-20 07:16:00,
2013-01-19 23:17:00,51.4,34.4,29.91,SE,135,4.3,4.3,52,0.00,,,0.00,VWS V14.01,2013-01-20 07:17:00,
2013-01-19 23:18:00,51.4,34.4,29.91,ESE,112,3.8,4.3,52,0.00,,,0.00,VWS V14.01,2013-01-20 07:18:00,
2013-01-19 23:19:00,51.3,34.2,29.91,ESE,112,3.8,3.8,52,0.00,,,0.00,VWS V14.01,2013-01-20 07:19:00,
2013-01-19 23:20:00,51.3,34.2,29.91,ESE,112,4.0,4.0,52,0.00,,,0.00,VWS V14.01,2013-01-20 07:20:00,
2013-01-19 23:21:00,51.3,34.2,29.91,ESE,112,4.3,4.3,52,0.00,,,0.00,VWS V14.01,2013-01-20 07:21:00,
2013-01-19 23:22:00,51.3,34.2,29.91,ESE,112,3.8,4.3,52,0.00,,,0.00,VWS V14.01,2013-01-20 07:22:00,
2013-01-19 23:23:00,51.3,34.2,29.91,East,90,3.4,3.8,52,0.00,,,0.00,VWS V14.01,2013-01-20 07:23:00,
2013-01-19 23:24:00,51.3,34.2,29.91,ESE,112,4.3,4.3,52,0.00,,,0.00,VWS V14.01,2013-01-20 07:24:00,
2013-01-19 23:25:00,51.3,34.2,29.91,ESE,112,3.4,4.3,52,0.00,,,0.00,VWS V14.01,2013-01-20 07:25:00,
2013-01-19 23:26:00,51.3,34.2,29.91,ESE,112,4.0,4.0,52,0.00,,,0.00,VWS V14.01,2013-01-20 07:26:00,
2013-01-19 23:27:00,51.3,34.2,29.91,ESE,112,4.3,4.3,52,0.00,,,0.00,VWS V14.01,2013-01-20 07:27:00,
2013-01-19 23:28:00,51.3,34.2,29.91,ESE,112,4.3,4.3,52,0.00,,,0.00,VWS V14.01,2013-01-20 07:28:00,
2013-01-19 23:29:00,51.3,34.2,29.91,ESE,112,3.1,4.3,52,0.00,,,0.00,VWS V14.01,2013-01-20 07:29:00,
2013-01-19 23:30:00,51.3,34.2,29.94,ESE,112,3.1,3.1,52,0.00,,,0.00,VWS V14.01,2013-01-20 07:30:00,
2013-01-19 23:31:00,51.3,34.2,29.94,ESE,112,1.3,3.1,52,0.00,,,0.00,VWS V14.01,2013-01-20 07:31:00,
2013-01-19 23:32:00,51.3,34.2,29.94,SE,135,3.8,3.8,52,0.00,,,0.00,VWS V14.01,2013-01-20 07:32:00,
2013-01-19 23:33:00,51.1,34.1,29.94,ESE,112,2.9,3.8,52,0.00,,,0.00,VWS V14.01,2013-01-20 07:33:00,
2013-01-19 23:34:00,51.1,34.1,29.94,ESE,112,3.4,3.4,52,0.00,,,0.00,VWS V14.01,2013-01-20 07:34:00,
2013-01-19 23:35:00,51.1,34.1,29.94,East,90,3.8,3.8,52,0.00,,,0.00,VWS V14.01,2013-01-20 07:35:00,
2013-01-19 23:36:00,51.1,34.1,29.94,NE,45,3.6,3.8,52,0.00,,,0.00,VWS V14.01,2013-01-20 07:36:00,
2013-01-19 23:37:00,51.1,34.1,29.94,ESE,112,3.8,3.8,52,0.00,,,0.00,VWS V14.01,2013-01-20 07:37:00,
2013-01-19 23:38:00,51.1,34.1,29.94,ESE,112,2.9,3.8,52,0.00,,,0.00,VWS V14.01,2013-01-20 07:38:00,
2013-01-19 23:39:00,51.1,34.1,29.94,ESE,112,4.0,4.0,52,0.00,,,0.00,VWS V14.01,2013-01-20 07:39:00,
2013-01-19 23:40:00,51.1,34.1,29.94,ESE,112,0.0,4.0,52,0.00,,,0.00,VWS V14.01,2013-01-20 07:40:00,
2013-01-19 23:41:00,51.1,34.1,29.94,ESE,112,3.1,3.1,52,0.00,,,0.00,VWS V14.01,2013-01-20 07:41:00,
2013-01-19 23:42:00,51.1,33.6,29.94,East,90,1.3,3.1,51,0.00,,,0.00,VWS V14.01,2013-01-20 07:42:00,
2013-01-19 23:43:00,50.9,33.4,29.91,ESE,112,2.2,2.2,51,0.00,,,0.00,VWS V14.01,2013-01-20 07:43:00,
2013-01-19 23:44:00,50.9,33.4,29.91,East,90,3.8,3.8,51,0.00,,,0.00,VWS V14.01,2013-01-20 07:44:00,
2013-01-19 23:45:00,50.9,33.9,29.91,ESE,112,3.8,3.8,52,0.00,,,0.00,VWS V14.01,2013-01-20 07:45:00,
2013-01-19 23:46:00,50.9,33.9,29.91,ESE,112,3.4,4.0,52,0.00,,,0.00,VWS V14.01,2013-01-20 07:46:00,
2013-01-19 23:47:00,50.7,33.3,29.91,ESE,112,3.4,3.4,51,0.00,,,0.00,VWS V14.01,2013-01-20 07:47:00,
2013-01-19 23:48:00,50.7,33.3,29.91,ESE,112,3.4,3.4,51,0.00,,,0.00,VWS V14.01,2013-01-20 07:48:00,
2013-01-19 23:49:00,50.7,33.3,29.91,ESE,112,2.9,3.4,51,0.00,,,0.00,VWS V14.01,2013-01-20 07:49:00,
2013-01-19 23:50:00,50.7,33.3,29.91,ESE,112,2.0,2.9,51,0.00,,,0.00,VWS V14.01,2013-01-20 07:50:00,
2013-01-19 23:51:00,50.7,33.3,29.91,ESE,112,2.9,2.9,51,0.00,,,0.00,VWS V14.01,2013-01-20 07:51:00,
2013-01-19 23:52:00,50.5,33.1,29.91,SSE,158,4.3,4.3,51,0.00,,,0.00,VWS V14.01,2013-01-20 07:52:00,
2013-01-19 23:53:00,50.5,33.1,29.91,SSE,158,4.3,4.3,51,0.00,,,0.00,VWS V14.01,2013-01-20 07:53:00,
2013-01-19 23:54:00,50.7,33.3,29.91,ESE,112,2.9,4.3,51,0.00,,,0.00,VWS V14.01,2013-01-20 07:54:00,
2013-01-19 23:55:00,50.7,33.3,29.91,ESE,112,3.8,3.8,51,0.00,,,0.00,VWS V14.01,2013-01-20 07:55:00,
2013-01-19 23:56:00,50.7,33.3,29.91,SE,135,3.1,3.8,51,0.00,,,0.00,VWS V14.01,2013-01-20 07:56:00,
2013-01-19 23:57:00,50.7,33.3,29.91,ESE,112,4.0,4.0,51,0.00,,,0.00,VWS V14.01,2013-01-20 07:57:00,
2013-01-19 23:58:00,50.5,33.1,29.91,ESE,112,3.1,4.0,51,0.00,,,0.00,VWS V14.01,2013-01-20 07:58:00,
2013-01-19 23:59:00,50.5,33.1,29.91,ESE,112,3.6,3.6,51,0.00,,,0.00,VWS V14.01,2013-01-20 07:59:00,